createdAt,value
2019-05-02T00:02:13.076Z,66.30
2019-05-02T00:04:42.708Z,66.40
2019-05-02T00:07:14.402Z,65.80
2019-05-02T00:09:48.416Z,65.60
2019-05-02T00:12:17.477Z,65.90
2019-05-02T00:14:47.721Z,65.90
2019-05-02T00:17:20.150Z,66.10
2019-05-02T00:19:49.872Z,66.10
2019-05-02T00:22:21.321Z,66.10
2019-05-02T00:24:51.169Z,65.90
2019-05-02T00:27:20.949Z,66.60
2019-05-02T00:29:53.895Z,67.30
2019-05-02T00:32:22.500Z,68.20
2019-05-02T00:34:53.361Z,68.70
2019-05-02T00:37:24.601Z,69.70
2019-05-02T00:39:54.425Z,70.40
2019-05-02T00:42:24.214Z,70.30
2019-05-02T00:44:53.948Z,70.90
2019-05-02T00:47:25.295Z,71.60
2019-05-02T00:49:54.998Z,71.70
2019-05-02T00:52:24.638Z,71.40
2019-05-02T00:54:55.051Z,71.90
2019-05-02T00:57:25.668Z,71.10
2019-05-02T00:59:55.304Z,71.10
2019-05-02T01:02:27.503Z,71.20
2019-05-02T01:04:59.316Z,70.70
2019-05-02T01:07:28.508Z,71.10
2019-05-02T01:09:58.116Z,71.00
2019-05-02T01:12:27.954Z,70.90
2019-05-02T01:14:57.532Z,71.00
2019-05-02T01:17:30.992Z,70.60
2019-05-02T01:19:58.285Z,71.00
2019-05-02T01:22:28.196Z,70.90
2019-05-02T01:24:57.747Z,70.90
2019-05-02T01:27:35.996Z,70.60
2019-05-02T01:30:17.086Z,70.20
2019-05-02T01:32:48.471Z,70.20
2019-05-02T01:35:22.351Z,70.00
2019-05-02T01:38:10.066Z,69.80
2019-05-02T01:40:39.712Z,69.60
2019-05-02T01:43:25.328Z,70.00
2019-05-02T01:45:55.390Z,69.50
2019-05-02T01:48:25.647Z,69.10
2019-05-02T01:50:55.433Z,69.90
2019-05-02T01:53:29.405Z,69.40
2019-05-02T01:55:57.256Z,69.70
2019-05-02T01:58:27.561Z,69.90
2019-05-02T02:00:57.064Z,70.60
2019-05-02T02:03:26.774Z,70.70
2019-05-02T02:05:56.419Z,70.70
2019-05-02T02:08:27.400Z,71.60
2019-05-02T02:10:58.275Z,72.90
2019-05-02T02:13:31.386Z,72.40
2019-05-02T02:16:04.464Z,72.20
2019-05-02T02:18:33.116Z,71.60
2019-05-02T02:21:25.671Z,70.90
2019-05-02T02:23:55.219Z,71.30
2019-05-02T02:26:25.634Z,71.90
2019-05-02T02:28:55.281Z,73.80
2019-05-02T02:31:24.854Z,74.80
2019-05-02T02:33:54.630Z,75.30
2019-05-02T02:36:31.525Z,76.30
2019-05-02T02:38:55.423Z,74.30
2019-05-02T02:41:25.070Z,73.70
2019-05-02T02:44:03.033Z,73.80
2019-05-02T02:46:37.859Z,73.80
2019-05-02T02:49:05.989Z,74.70
2019-05-02T02:51:35.575Z,74.80
2019-05-02T02:54:05.812Z,75.30
2019-05-02T02:56:40.408Z,75.20
2019-05-02T02:59:07.099Z,75.20
2019-05-02T03:01:36.908Z,76.10
2019-05-02T03:04:09.114Z,76.60
2019-05-02T03:06:38.419Z,76.70
2019-05-02T03:09:09.214Z,76.20
2019-05-02T03:11:49.471Z,77.20
2019-05-02T03:14:23.330Z,78.70
2019-05-02T03:16:52.851Z,77.70
2019-05-02T03:19:23.138Z,78.00
2019-05-02T03:22:00.317Z,78.40
2019-05-02T03:24:26.444Z,79.20
2019-05-02T03:26:58.339Z,78.80
2019-05-02T03:29:39.700Z,78.50
2019-05-02T03:32:13.506Z,78.50
2019-05-02T03:34:45.553Z,79.70
2019-05-02T03:37:10.715Z,81.50
2019-05-02T03:39:35.087Z,82.20
2019-05-02T03:42:05.111Z,82.30
2019-05-02T03:44:35.950Z,82.40
2019-05-02T03:47:05.568Z,82.90
2019-05-02T03:49:40.964Z,83.50
2019-05-02T03:52:06.456Z,85.70
2019-05-02T03:54:48.441Z,84.80
2019-05-02T03:57:07.884Z,85.20
2019-05-02T03:59:39.401Z,84.30
2019-05-02T04:02:14.000Z,85.50
2019-05-02T04:04:40.972Z,84.90
2019-05-02T04:07:10.815Z,85.40
2019-05-02T04:09:42.504Z,84.70
2019-05-02T04:12:18.689Z,84.80
2019-05-02T04:14:43.381Z,84.30
2019-05-02T04:17:12.951Z,84.20
2019-05-02T04:19:43.537Z,84.10
2019-05-02T04:22:14.750Z,84.00
2019-05-02T04:24:47.809Z,84.20
2019-05-02T04:27:16.107Z,83.90
2019-05-02T04:29:46.695Z,83.80
2019-05-02T04:32:16.325Z,83.40
2019-05-02T04:34:48.839Z,83.20
2019-05-02T04:37:17.098Z,82.90
2019-05-02T04:39:49.066Z,82.80
2019-05-02T04:42:22.067Z,82.90
2019-05-02T04:45:11.709Z,82.10
2019-05-02T04:47:21.781Z,81.10
2019-05-02T04:49:52.267Z,80.70
2019-05-02T04:52:21.996Z,80.30
2019-05-02T04:54:51.619Z,79.70
2019-05-02T04:57:27.157Z,79.30
2019-05-02T05:00:02.379Z,78.90
2019-05-02T05:02:31.085Z,78.90
2019-05-02T05:04:55.001Z,79.20
2019-05-02T05:07:24.560Z,78.70
2019-05-02T05:09:58.226Z,78.30
2019-05-02T05:12:25.385Z,77.90
2019-05-02T05:14:55.011Z,77.70
2019-05-02T05:17:25.192Z,77.20
2019-05-02T05:19:57.388Z,77.30
2019-05-02T05:22:28.357Z,77.00
2019-05-02T05:25:02.661Z,76.90
2019-05-02T05:27:32.225Z,77.10
2019-05-02T05:30:08.412Z,77.20
2019-05-02T05:32:33.024Z,76.80
2019-05-02T05:35:03.277Z,76.20
2019-05-02T05:37:33.913Z,76.90
2019-05-02T05:40:04.849Z,75.30
2019-05-02T05:42:34.425Z,75.30
2019-05-02T05:45:09.743Z,74.80
2019-05-02T05:47:37.825Z,72.30
2019-05-02T05:50:08.687Z,69.70
2019-05-02T05:52:42.265Z,69.00
2019-05-02T05:55:12.722Z,64.40
2019-05-02T05:57:40.692Z,64.90
2019-05-02T06:00:15.575Z,66.60
2019-05-02T06:02:52.821Z,65.80
2019-05-02T06:05:13.504Z,65.70
2019-05-02T06:07:44.918Z,63.20
2019-05-02T06:10:14.417Z,61.70
2019-05-02T06:12:44.182Z,59.00
2019-05-02T06:15:14.381Z,54.00
2019-05-02T06:17:43.985Z,53.80
2019-05-02T06:20:13.928Z,54.20
2019-05-02T06:22:43.491Z,56.20
2019-05-02T06:25:13.418Z,57.70
2019-05-02T06:27:43.131Z,57.00
2019-05-02T06:30:13.184Z,57.70
2019-05-02T06:32:43.817Z,51.30
2019-05-02T06:35:17.046Z,39.90
2019-05-02T06:37:50.112Z,33.00
2019-05-02T06:40:17.116Z,30.10
2019-05-02T06:42:46.712Z,28.80
2019-05-02T06:45:16.640Z,28.60
2019-05-02T06:47:46.324Z,28.80
2019-05-02T06:50:16.271Z,29.80
2019-05-02T06:52:45.998Z,29.10
2019-05-02T06:55:15.721Z,28.40
2019-05-02T06:57:45.356Z,28.50
2019-05-02T07:00:15.752Z,28.30
2019-05-02T07:02:45.395Z,28.00
2019-05-02T07:05:15.220Z,27.10
2019-05-02T07:07:44.996Z,25.90
2019-05-02T07:10:14.680Z,25.40
2019-05-02T07:12:46.194Z,24.90
2019-05-02T07:15:38.573Z,25.00
2019-05-02T07:18:10.759Z,24.80
2019-05-02T07:20:42.563Z,24.10
2019-05-02T07:23:16.165Z,23.20
2019-05-02T07:25:45.281Z,22.60
2019-05-02T07:28:14.956Z,22.40
2019-05-02T07:30:44.602Z,21.40
2019-05-02T07:33:14.232Z,20.60
2019-05-02T07:35:43.882Z,20.10
2019-05-02T07:38:13.689Z,20.60
2019-05-02T07:40:43.434Z,21.00
2019-05-02T07:43:19.205Z,21.20
2019-05-02T07:45:45.456Z,21.30
2019-05-02T07:48:17.841Z,20.20
2019-05-02T07:50:48.181Z,19.90
2019-05-02T07:53:18.136Z,20.70
2019-05-02T07:55:49.248Z,20.50
2019-05-02T07:58:19.185Z,20.50
2019-05-02T08:00:48.931Z,20.20
2019-05-02T08:03:18.608Z,20.30
2019-05-02T08:05:48.247Z,21.00
2019-05-02T08:08:17.877Z,21.70
2019-05-02T08:10:47.451Z,22.40
2019-05-02T08:13:17.747Z,22.80
2019-05-02T08:15:50.810Z,22.80
2019-05-02T08:18:18.732Z,23.40
2019-05-02T08:20:51.045Z,22.40
2019-05-02T08:23:20.439Z,21.50
2019-05-02T08:25:50.839Z,23.40
2019-05-02T08:28:22.225Z,25.50
2019-05-02T08:30:55.991Z,27.40
2019-05-02T08:33:29.264Z,29.70
2019-05-02T08:35:56.800Z,32.60
2019-05-02T08:38:26.339Z,34.60
2019-05-02T08:40:55.941Z,36.60
2019-05-02T08:43:25.647Z,38.10
2019-05-02T08:45:55.290Z,37.70
2019-05-02T08:48:25.072Z,38.50
2019-05-02T08:50:54.650Z,37.70
2019-05-02T08:53:24.291Z,37.90
2019-05-02T08:55:54.084Z,38.60
2019-05-02T08:58:23.772Z,39.20
2019-05-02T09:00:53.409Z,38.50
2019-05-02T09:03:23.023Z,38.10
2019-05-02T09:06:04.642Z,37.60
2019-05-02T09:08:24.348Z,38.50
2019-05-02T09:10:53.920Z,39.00
2019-05-02T09:13:27.135Z,38.40
2019-05-02T09:15:54.730Z,39.00
2019-05-02T09:18:30.097Z,39.30
2019-05-02T09:20:56.683Z,38.30
2019-05-02T09:23:27.569Z,38.80
2019-05-02T09:25:57.893Z,38.40
2019-05-02T09:28:27.383Z,38.40
2019-05-02T09:31:01.775Z,38.70
2019-05-02T09:33:28.297Z,38.70
2019-05-02T09:35:57.865Z,39.10
2019-05-02T09:38:27.504Z,37.70
2019-05-02T09:40:57.085Z,38.20
2019-05-02T09:43:29.394Z,37.20
2019-05-02T09:45:57.769Z,37.20
2019-05-02T09:48:27.328Z,36.30
2019-05-02T09:50:58.186Z,36.90
2019-05-02T09:53:28.075Z,37.60
2019-05-02T09:55:58.122Z,38.70
2019-05-02T09:58:27.877Z,38.00
2019-05-02T10:01:02.099Z,37.70
2019-05-02T10:03:32.100Z,36.90
2019-05-02T10:06:03.101Z,38.50
2019-05-02T10:08:38.258Z,39.20
2019-05-02T10:11:05.386Z,37.90
2019-05-02T10:13:35.914Z,38.10
2019-05-02T10:16:05.645Z,37.80
2019-05-02T10:18:35.244Z,38.00
2019-05-02T10:21:07.845Z,37.00
2019-05-02T10:23:36.790Z,36.90
2019-05-02T10:26:06.534Z,38.40
2019-05-02T10:28:36.141Z,37.50
2019-05-02T10:31:06.173Z,36.70
2019-05-02T10:33:37.633Z,34.80
2019-05-02T10:36:11.968Z,34.80
2019-05-02T10:38:38.405Z,34.70
2019-05-02T10:41:09.089Z,35.80
2019-05-02T10:43:38.881Z,35.00
2019-05-02T10:46:12.432Z,34.20
2019-05-02T10:48:43.143Z,35.10
2019-05-02T10:51:26.436Z,35.40
2019-05-02T10:53:56.751Z,37.40
2019-05-02T10:56:26.373Z,37.10
2019-05-02T10:58:55.910Z,36.70
2019-05-02T11:01:27.349Z,36.80
2019-05-02T11:03:58.621Z,37.00
2019-05-02T11:06:28.288Z,37.30
2019-05-02T11:08:57.873Z,37.40
2019-05-02T11:11:27.502Z,37.90
2019-05-02T11:14:05.829Z,35.90
2019-05-02T11:16:56.896Z,36.70
2019-05-02T11:19:44.457Z,35.60
2019-05-02T11:22:14.267Z,30.50
2019-05-02T11:24:43.900Z,30.80
2019-05-02T11:27:13.719Z,30.50
2019-05-02T11:29:43.508Z,31.10
2019-05-02T11:32:13.142Z,31.50
2019-05-02T11:34:42.661Z,30.70
2019-05-02T11:37:12.327Z,32.50
2019-05-02T11:39:46.318Z,32.60
2019-05-02T11:42:13.273Z,31.90
2019-05-02T11:44:42.821Z,32.60
2019-05-02T11:47:12.705Z,32.60
2019-05-02T11:49:46.708Z,33.20
2019-05-02T11:52:13.767Z,33.50
2019-05-02T11:54:46.843Z,33.90
2019-05-02T11:57:14.645Z,33.30
2019-05-02T11:59:45.272Z,32.50
2019-05-02T12:02:18.772Z,32.40
2019-05-02T12:04:54.277Z,32.20
2019-05-02T12:07:19.212Z,32.90
2019-05-02T12:09:52.073Z,34.60
2019-05-02T12:12:20.319Z,32.80
2019-05-02T12:14:49.941Z,31.40
2019-05-02T12:17:21.679Z,33.70
2019-05-02T12:19:52.321Z,33.00
2019-05-02T12:22:23.129Z,34.60
2019-05-02T12:24:52.685Z,35.10
2019-05-02T12:27:22.310Z,35.20
2019-05-02T12:29:58.018Z,35.90
2019-05-02T12:32:23.205Z,34.40
2019-05-02T12:34:53.055Z,34.30
2019-05-02T12:37:22.606Z,34.80
2019-05-02T12:39:52.149Z,34.30
2019-05-02T12:42:23.967Z,33.90
2019-05-02T12:44:54.043Z,33.50
2019-05-02T12:47:23.613Z,34.40
2019-05-02T12:49:53.254Z,34.20
2019-05-02T12:52:22.825Z,33.70
2019-05-02T12:54:53.449Z,33.90
2019-05-02T12:57:23.113Z,33.30
2019-05-02T12:59:52.740Z,33.30
2019-05-02T13:02:38.932Z,33.70
2019-05-02T13:05:08.671Z,35.50
2019-05-02T13:07:42.823Z,36.90
2019-05-02T13:10:11.860Z,36.70
2019-05-02T13:12:43.144Z,36.50
2019-05-02T13:15:13.114Z,37.10
2019-05-02T13:17:48.517Z,36.40
2019-05-02T13:20:16.118Z,35.30
2019-05-02T13:23:03.573Z,35.80
2019-05-02T13:25:36.875Z,35.50
2019-05-02T13:28:04.399Z,32.60
2019-05-02T13:30:42.677Z,31.40
2019-05-02T13:33:08.941Z,32.00
2019-05-02T13:35:42.095Z,31.80
2019-05-02T13:38:12.978Z,32.20
2019-05-02T13:40:43.466Z,33.00
2019-05-02T13:43:13.110Z,33.40
2019-05-02T13:45:44.791Z,34.40
2019-05-02T13:48:14.412Z,34.40
2019-05-02T13:50:44.114Z,34.80
2019-05-02T13:53:14.064Z,35.60
2019-05-02T13:55:52.367Z,35.40
2019-05-02T13:58:28.889Z,35.30
2019-05-02T14:00:53.573Z,36.20
2019-05-02T14:03:23.713Z,35.60
2019-05-02T14:05:53.914Z,34.80
2019-05-02T14:08:27.543Z,33.50
2019-05-02T14:11:01.923Z,33.60
2019-05-02T14:13:31.778Z,35.30
2019-05-02T14:16:02.283Z,33.20
2019-05-02T14:18:33.574Z,34.10
2019-05-02T14:21:03.504Z,34.10
2019-05-02T14:23:33.057Z,33.70
2019-05-02T14:26:02.962Z,32.50
2019-05-02T14:28:36.249Z,32.60
2019-05-02T14:31:03.850Z,31.90
2019-05-02T14:33:34.984Z,33.20
2019-05-02T14:36:04.881Z,34.10
2019-05-02T14:38:34.581Z,35.10
2019-05-02T14:41:12.563Z,34.80
2019-05-02T14:43:53.958Z,34.50
2019-05-02T14:46:28.994Z,33.70
2019-05-02T14:48:56.672Z,33.50
2019-05-02T14:51:27.894Z,33.60
2019-05-02T14:54:02.658Z,33.30
2019-05-02T14:56:47.959Z,32.80
2019-05-02T14:59:19.854Z,32.10
2019-05-02T15:01:52.584Z,32.50
2019-05-02T15:04:22.680Z,31.90
2019-05-02T15:06:52.776Z,31.70
2019-05-02T15:09:26.620Z,30.50
2019-05-02T15:11:59.412Z,30.00
2019-05-02T15:14:32.661Z,29.90
2019-05-02T15:17:02.847Z,29.10
2019-05-02T15:19:33.126Z,30.80
2019-05-02T15:22:03.078Z,31.40
2019-05-02T15:24:37.361Z,32.20
2019-05-02T15:27:11.967Z,32.30
2019-05-02T15:29:36.376Z,33.70
2019-05-02T15:32:14.793Z,34.20
2019-05-02T15:34:52.534Z,34.60
2019-05-02T15:37:25.708Z,35.30
2019-05-02T15:42:25.791Z,35.60
2019-05-02T15:44:57.206Z,36.60
2019-05-02T15:47:26.648Z,37.10
2019-05-02T15:49:56.279Z,37.50
2019-05-02T15:52:30.044Z,36.80
2019-05-02T15:55:03.574Z,36.60
2019-05-02T15:57:38.125Z,37.00
2019-05-02T16:00:03.164Z,36.90
2019-05-02T16:02:34.456Z,36.60
2019-05-02T16:05:07.782Z,37.10
2019-05-02T16:07:38.175Z,37.50
2019-05-02T16:10:13.152Z,37.90
2019-05-02T16:12:44.624Z,38.10
2019-05-02T16:15:21.266Z,38.50
2019-05-02T16:17:45.863Z,38.20
2019-05-02T16:20:24.021Z,38.40
2019-05-02T16:22:53.844Z,38.00
2019-05-02T16:25:26.047Z,38.20
2019-05-02T16:27:57.521Z,38.90
2019-05-02T16:30:27.247Z,39.20
2019-05-02T16:32:58.727Z,39.60
2019-05-02T16:35:33.875Z,40.30
2019-05-02T16:38:04.095Z,40.80
2019-05-02T16:40:34.871Z,41.20
2019-05-02T16:43:05.077Z,41.60
2019-05-02T16:45:34.673Z,41.70
2019-05-02T16:48:04.969Z,42.30
2019-05-02T16:50:36.720Z,42.70
2019-05-02T16:53:05.847Z,42.90
2019-05-02T16:55:35.453Z,43.40
2019-05-02T16:58:07.230Z,44.00
2019-05-02T17:00:41.314Z,44.60
2019-05-02T17:03:09.008Z,45.20
2019-05-02T17:05:39.496Z,45.50
2019-05-02T17:08:29.931Z,45.90
2019-05-02T17:11:02.009Z,46.10
2019-05-02T17:13:32.920Z,46.30
2019-05-02T17:16:04.877Z,45.70
2019-05-02T17:18:34.610Z,45.40
2019-05-02T17:21:04.824Z,45.10
2019-05-02T17:23:37.604Z,44.90
2019-05-02T17:26:05.759Z,44.60
2019-05-02T17:28:37.964Z,45.20
2019-05-02T17:31:10.848Z,45.70
2019-05-02T17:33:38.956Z,46.10
2019-05-02T17:36:08.526Z,46.10
2019-05-02T17:38:38.721Z,46.80
2019-05-02T17:41:08.256Z,47.50
2019-05-02T17:43:42.150Z,48.40
2019-05-02T17:46:12.582Z,49.30
2019-05-02T17:48:42.888Z,50.00
2019-05-02T17:51:14.328Z,50.80
2019-05-02T17:53:49.583Z,50.70
2019-05-02T17:56:20.570Z,50.30
2019-05-02T17:58:54.101Z,50.20
2019-05-02T18:01:21.763Z,50.10
2019-05-02T18:03:52.055Z,50.40
2019-05-02T18:06:32.481Z,50.40
2019-05-02T18:08:55.469Z,50.20
2019-05-02T18:11:29.579Z,50.60
2019-05-02T18:13:57.193Z,50.10
2019-05-02T18:16:29.447Z,49.70
2019-05-02T18:19:01.755Z,49.80
2019-05-02T18:21:32.424Z,49.80
2019-05-02T18:24:05.939Z,49.80
2019-05-02T18:26:33.455Z,50.20
2019-05-02T18:29:06.991Z,50.10
2019-05-02T18:31:40.109Z,50.60
2019-05-02T18:34:14.369Z,50.70
2019-05-02T18:36:41.702Z,51.00
2019-05-02T18:39:13.017Z,50.80
2019-05-02T18:41:46.378Z,51.10
2019-05-02T18:44:17.037Z,51.20
2019-05-02T18:49:53.809Z,52.00
2019-05-02T18:52:35.127Z,51.40
2019-05-02T18:54:54.829Z,51.20
2019-05-02T18:57:26.074Z,51.00
2019-05-02T18:59:56.525Z,50.80
2019-05-02T19:02:34.077Z,50.70
2019-05-02T19:04:58.656Z,51.50
2019-05-02T19:07:33.175Z,51.20
2019-05-02T19:10:04.272Z,51.00
2019-05-02T19:12:32.596Z,51.10
2019-05-02T19:15:03.225Z,51.10
2019-05-02T19:17:38.367Z,50.50
2019-05-02T19:20:29.665Z,50.90
2019-05-02T19:22:59.442Z,51.10
2019-05-02T19:25:28.992Z,51.10
2019-05-02T19:28:03.242Z,51.10
2019-05-02T19:30:42.265Z,51.30
2019-05-02T19:33:12.217Z,51.40
2019-05-02T19:35:43.284Z,51.40
2019-05-02T19:38:17.098Z,51.30
2019-05-02T19:40:44.368Z,51.80
2019-05-02T19:43:14.785Z,51.80
2019-05-02T19:45:45.718Z,51.50
2019-05-02T19:48:15.972Z,51.90
2019-05-02T19:50:46.088Z,52.20
2019-05-02T19:53:18.335Z,51.90
2019-05-02T19:55:47.224Z,51.80
2019-05-02T19:58:16.959Z,52.00
2019-05-02T20:00:46.755Z,52.10
2019-05-02T20:03:21.747Z,52.40
2019-05-02T20:05:51.760Z,52.00
2019-05-02T20:08:24.346Z,51.70
2019-05-02T20:10:56.738Z,51.90
2019-05-02T20:13:28.089Z,51.70
2019-05-02T20:16:04.486Z,51.40
2019-05-02T20:18:36.790Z,51.80
2019-05-02T20:21:23.393Z,52.00
2019-05-02T20:23:45.173Z,52.20
2019-05-02T20:26:17.163Z,52.20
2019-05-02T20:28:46.763Z,52.50
2019-05-02T20:31:16.406Z,52.60
2019-05-02T20:33:45.853Z,52.90
2019-05-02T20:36:15.587Z,52.20
2019-05-02T20:38:45.142Z,52.60
2019-05-02T20:41:14.836Z,52.80
2019-05-02T20:43:45.038Z,52.90
2019-05-02T20:46:14.733Z,53.10
2019-05-02T20:48:44.343Z,53.70
2019-05-02T20:51:13.903Z,54.00
2019-05-02T20:53:43.534Z,54.60
2019-05-02T20:56:14.510Z,55.10
2019-05-02T20:58:44.313Z,55.50
2019-05-02T21:01:13.944Z,55.80
2019-05-02T21:03:43.633Z,55.70
2019-05-02T21:06:20.712Z,56.00
2019-05-02T21:09:07.052Z,56.30
2019-05-02T21:11:37.779Z,56.10
2019-05-02T21:14:07.316Z,56.40
2019-05-02T21:16:36.883Z,56.30
2019-05-02T21:19:07.457Z,55.10
2019-05-02T21:21:40.064Z,55.00
2019-05-02T21:24:09.162Z,54.40
2019-05-02T21:26:42.001Z,54.00
2019-05-02T21:29:12.158Z,53.50
2019-05-02T21:31:42.532Z,53.70
2019-05-02T21:34:13.436Z,53.70
2019-05-02T21:36:43.143Z,53.50
2019-05-02T21:39:13.060Z,53.20
2019-05-02T21:41:42.816Z,53.40
2019-05-02T21:44:13.185Z,54.60
2019-05-02T21:46:43.006Z,55.80
2019-05-02T21:49:14.199Z,56.70
2019-05-02T21:51:48.310Z,59.00
2019-05-02T21:54:23.231Z,59.40
2019-05-02T21:56:55.428Z,58.40
2019-05-02T21:59:25.057Z,58.20
2019-05-02T22:01:56.357Z,57.20
2019-05-02T22:04:26.034Z,55.90
2019-05-02T22:06:55.847Z,55.60
2019-05-02T22:09:25.457Z,55.50
2019-05-02T22:11:54.946Z,54.80
2019-05-02T22:14:24.726Z,54.40
2019-05-02T22:16:54.310Z,54.40
2019-05-02T22:19:24.021Z,54.60
2019-05-02T22:21:53.544Z,54.40
2019-05-02T22:24:23.252Z,55.20
2019-05-02T22:26:53.021Z,56.60
2019-05-02T22:29:22.584Z,59.50
2019-05-02T22:31:54.475Z,62.40
2019-05-02T22:34:23.343Z,64.40
2019-05-02T22:36:54.318Z,66.20
2019-05-02T22:39:35.495Z,66.80
2019-05-02T22:42:05.411Z,66.70
2019-05-02T22:44:35.176Z,67.00
2019-05-02T22:47:04.980Z,67.20
2019-05-02T22:49:34.641Z,67.70
2019-05-02T22:52:04.354Z,68.40
2019-05-02T22:54:34.066Z,69.10
2019-05-02T22:57:03.874Z,70.40
2019-05-02T22:59:33.565Z,69.70
2019-05-02T23:02:03.272Z,70.00
2019-05-02T23:04:32.932Z,70.30
2019-05-02T23:07:02.577Z,69.80
2019-05-02T23:09:32.126Z,69.20
2019-05-02T23:12:02.839Z,68.90
2019-05-02T23:14:33.692Z,69.20
2019-05-02T23:17:03.325Z,69.50
2019-05-02T23:19:32.912Z,68.90
2019-05-02T23:22:02.519Z,69.10
2019-05-02T23:24:38.753Z,70.00
2019-05-02T23:27:23.623Z,69.30
2019-05-02T23:29:53.251Z,69.00
2019-05-02T23:32:23.895Z,68.70
2019-05-02T23:34:53.545Z,68.80
2019-05-02T23:37:23.210Z,69.30
2019-05-02T23:39:52.844Z,70.10
2019-05-02T23:42:22.428Z,71.20
2019-05-02T23:44:52.029Z,70.70
2019-05-02T23:47:22.433Z,70.90
2019-05-02T23:49:53.237Z,71.10
2019-05-02T23:52:22.815Z,71.00
2019-05-02T23:54:53.019Z,71.50
2019-05-02T23:57:22.926Z,71.20
2019-05-02T23:59:52.675Z,71.30
